sensor_id;sensor_type;location;lat;lon;timestamp;pressure;altitude;pressure_sealevel;temperature;humidity
57859;BME280;49153;45.568;11.894;2022-10-31T00:00:03;101968.63;;;14.70;80.06
57859;BME280;49153;45.568;11.894;2022-10-31T00:02:28;101959.28;;;14.52;79.99
57859;BME280;49153;45.568;11.894;2022-10-31T00:04:54;101961.50;;;14.46;79.81
57859;BME280;49153;45.568;11.894;2022-10-31T00:07:19;101972.56;;;14.52;79.90
57859;BME280;49153;45.568;11.894;2022-10-31T00:09:45;101961.72;;;14.43;79.84
57859;BME280;49153;45.568;11.894;2022-10-31T00:12:10;101960.72;;;14.44;79.77
57859;BME280;49153;45.568;11.894;2022-10-31T00:14:36;101951.78;;;14.32;80.01
57859;BME280;49153;45.568;11.894;2022-10-31T00:17:02;101949.31;;;14.29;80.26
57859;BME280;49153;45.568;11.894;2022-10-31T00:19:27;101985.84;;;14.52;80.19
57859;BME280;49153;45.568;11.894;2022-10-31T00:21:53;101980.72;;;14.49;80.23
57859;BME280;49153;45.568;11.894;2022-10-31T00:24:18;101954.53;;;14.30;79.96
57859;BME280;49153;45.568;11.894;2022-10-31T00:26:46;101940.50;;;14.16;79.90
57859;BME280;49153;45.568;11.894;2022-10-31T00:29:12;101980.00;;;14.33;80.30
57859;BME280;49153;45.568;11.894;2022-10-31T00:31:37;101976.00;;;14.27;79.80
57859;BME280;49153;45.568;11.894;2022-10-31T00:34:03;101951.69;;;14.07;80.24
57859;BME280;49153;45.568;11.894;2022-10-31T00:36:29;101950.03;;;14.06;80.33
57859;BME280;49153;45.568;11.894;2022-10-31T00:38:54;101945.97;;;14.00;80.38
57859;BME280;49153;45.568;11.894;2022-10-31T00:41:20;101949.34;;;14.02;80.82
57859;BME280;49153;45.568;11.894;2022-10-31T00:43:45;101936.41;;;13.98;80.96
57859;BME280;49153;45.568;11.894;2022-10-31T00:46:12;101957.00;;;14.07;80.63
57859;BME280;49153;45.568;11.894;2022-10-31T00:48:38;101936.63;;;13.94;80.40
57859;BME280;49153;45.568;11.894;2022-10-31T00:51:04;101964.53;;;14.00;80.43
57859;BME280;49153;45.568;11.894;2022-10-31T00:53:29;101941.41;;;13.75;80.29
57859;BME280;49153;45.568;11.894;2022-10-31T00:55:55;101960.72;;;13.77;80.41
57859;BME280;49153;45.568;11.894;2022-10-31T00:58:20;101956.88;;;13.69;80.85
57859;BME280;49153;45.568;11.894;2022-10-31T01:00:49;101962.84;;;13.72;81.19
57859;BME280;49153;45.568;11.894;2022-10-31T01:03:25;101962.44;;;13.78;80.89
57859;BME280;49153;45.568;11.894;2022-10-31T01:08:23;101977.19;;;13.82;80.97
57859;BME280;49153;45.568;11.894;2022-10-31T01:11:01;101947.53;;;13.63;81.26
57859;BME280;49153;45.568;11.894;2022-10-31T01:13:26;101964.31;;;13.76;81.52
57859;BME280;49153;45.568;11.894;2022-10-31T01:15:56;101956.59;;;13.73;81.11
57859;BME280;49153;45.568;11.894;2022-10-31T01:18:22;101947.53;;;13.63;80.85
57859;BME280;49153;45.568;11.894;2022-10-31T01:20:59;101944.31;;;13.58;80.88
57859;BME280;49153;45.568;11.894;2022-10-31T01:23:24;101953.00;;;13.60;80.92
57859;BME280;49153;45.568;11.894;2022-10-31T01:25:58;101949.78;;;13.55;81.21
57859;BME280;49153;45.568;11.894;2022-10-31T01:28:24;101962.56;;;13.63;81.38
57859;BME280;49153;45.568;11.894;2022-10-31T01:30:49;101953.31;;;13.56;81.19
57859;BME280;49153;45.568;11.894;2022-10-31T01:33:15;101938.72;;;13.48;81.41
57859;BME280;49153;45.568;11.894;2022-10-31T01:35:40;101965.31;;;13.61;81.31
57859;BME280;49153;45.568;11.894;2022-10-31T01:38:05;101961.91;;;13.59;81.46
57859;BME280;49153;45.568;11.894;2022-10-31T01:40:31;101942.22;;;13.49;81.53
57859;BME280;49153;45.568;11.894;2022-10-31T01:42:56;101927.78;;;13.40;81.84
57859;BME280;49153;45.568;11.894;2022-10-31T01:45:22;101941.13;;;13.53;81.72
57859;BME280;49153;45.568;11.894;2022-10-31T01:47:48;101963.22;;;13.66;81.81
57859;BME280;49153;45.568;11.894;2022-10-31T01:50:29;101958.69;;;13.68;81.86
57859;BME280;49153;45.568;11.894;2022-10-31T01:52:57;101934.84;;;13.54;81.49
57859;BME280;49153;45.568;11.894;2022-10-31T01:55:30;101917.53;;;13.48;81.78
57859;BME280;49153;45.568;11.894;2022-10-31T01:58:02;101954.31;;;13.67;81.31
57859;BME280;49153;45.568;11.894;2022-10-31T02:00:30;101951.75;;;13.66;81.32
57859;BME280;49153;45.568;11.894;2022-10-31T02:02:56;101931.84;;;13.46;81.83
57859;BME280;49153;45.568;11.894;2022-10-31T02:05:25;101941.84;;;13.55;81.84
57859;BME280;49153;45.568;11.894;2022-10-31T02:07:58;101938.81;;;13.61;81.67
57859;BME280;49153;45.568;11.894;2022-10-31T02:10:25;101920.28;;;13.47;81.72
57859;BME280;49153;45.568;11.894;2022-10-31T02:12:52;101951.03;;;13.64;81.46
57859;BME280;49153;45.568;11.894;2022-10-31T02:15:20;101931.75;;;13.47;81.22
57859;BME280;49153;45.568;11.894;2022-10-31T02:17:46;101950.41;;;13.46;81.15
57859;BME280;49153;45.568;11.894;2022-10-31T02:20:17;101932.72;;;13.32;81.50
57859;BME280;49153;45.568;11.894;2022-10-31T02:28:13;101951.97;;;13.48;82.05
57859;BME280;49153;45.568;11.894;2022-10-31T02:36:19;101953.53;;;13.38;81.37
57859;BME280;49153;45.568;11.894;2022-10-31T02:41:50;101919.88;;;13.12;82.07
57859;BME280;49153;45.568;11.894;2022-10-31T02:46:59;101951.53;;;13.28;81.91
57859;BME280;49153;45.568;11.894;2022-10-31T02:49:37;101921.84;;;13.08;81.81
57859;BME280;49153;45.568;11.894;2022-10-31T02:52:16;101943.03;;;13.23;81.95
57859;BME280;49153;45.568;11.894;2022-10-31T02:54:42;101946.53;;;13.23;82.18
57859;BME280;49153;45.568;11.894;2022-10-31T02:57:09;101926.94;;;13.11;81.74
57859;BME280;49153;45.568;11.894;2022-10-31T02:59:37;101920.81;;;13.11;81.89
57859;BME280;49153;45.568;11.894;2022-10-31T03:10:41;101946.66;;;13.22;82.60
57859;BME280;49153;45.568;11.894;2022-10-31T03:15:50;101931.13;;;13.16;82.05
57859;BME280;49153;45.568;11.894;2022-10-31T03:18:29;101935.66;;;13.14;81.90
57859;BME280;49153;45.568;11.894;2022-10-31T03:21:07;101921.66;;;12.97;82.11
57859;BME280;49153;45.568;11.894;2022-10-31T03:23:36;101932.06;;;13.00;82.14
57859;BME280;49153;45.568;11.894;2022-10-31T03:26:05;101938.88;;;13.04;82.38
57859;BME280;49153;45.568;11.894;2022-10-31T03:28:44;101935.28;;;13.05;82.13
57859;BME280;49153;45.568;11.894;2022-10-31T03:31:13;101951.66;;;13.12;82.30
57859;BME280;49153;45.568;11.894;2022-10-31T03:33:42;101936.31;;;13.03;82.47
57859;BME280;49153;45.568;11.894;2022-10-31T03:36:10;101942.53;;;13.02;82.26
57859;BME280;49153;45.568;11.894;2022-10-31T03:38:38;101947.84;;;13.02;81.61
57859;BME280;49153;45.568;11.894;2022-10-31T03:41:07;101949.34;;;12.92;81.76
57859;BME280;49153;45.568;11.894;2022-10-31T03:43:41;101954.66;;;12.92;82.02
57859;BME280;49153;45.568;11.894;2022-10-31T03:46:07;101930.19;;;12.74;82.01
57859;BME280;49153;45.568;11.894;2022-10-31T03:48:33;101947.66;;;12.91;82.02
57859;BME280;49153;45.568;11.894;2022-10-31T03:51:07;101958.16;;;12.92;81.94
57859;BME280;49153;45.568;11.894;2022-10-31T03:56:23;101944.63;;;12.83;82.18
57859;BME280;49153;45.568;11.894;2022-10-31T04:01:24;101957.97;;;12.81;81.98
57859;BME280;49153;45.568;11.894;2022-10-31T04:03:51;101949.06;;;12.82;82.17
57859;BME280;49153;45.568;11.894;2022-10-31T04:06:18;101941.13;;;12.68;82.10
57859;BME280;49153;45.568;11.894;2022-10-31T04:08:51;101937.06;;;12.62;81.84
57859;BME280;49153;45.568;11.894;2022-10-31T04:11:21;101959.56;;;12.69;82.09
57859;BME280;49153;45.568;11.894;2022-10-31T04:13:49;101963.06;;;12.70;82.44
57859;BME280;49153;45.568;11.894;2022-10-31T04:16:16;101962.13;;;12.71;82.15
57859;BME280;49153;45.568;11.894;2022-10-31T04:18:41;101950.19;;;12.64;82.36
57859;BME280;49153;45.568;11.894;2022-10-31T04:21:07;101951.22;;;12.61;82.14
57859;BME280;49153;45.568;11.894;2022-10-31T04:23:34;101957.09;;;12.66;82.24
57859;BME280;49153;45.568;11.894;2022-10-31T04:26:00;101948.38;;;12.64;82.85
57859;BME280;49153;45.568;11.894;2022-10-31T04:28:25;101951.16;;;12.63;82.20
57859;BME280;49153;45.568;11.894;2022-10-31T04:30:51;101965.91;;;12.67;82.55
57859;BME280;49153;45.568;11.894;2022-10-31T04:33:17;101967.88;;;12.63;82.00
57859;BME280;49153;45.568;11.894;2022-10-31T04:35:43;101949.31;;;12.49;82.29
57859;BME280;49153;45.568;11.894;2022-10-31T04:38:08;101975.13;;;12.60;82.66
57859;BME280;49153;45.568;11.894;2022-10-31T04:40:34;101964.56;;;12.60;82.41
57859;BME280;49153;45.568;11.894;2022-10-31T04:42:59;101956.88;;;12.55;82.60
57859;BME280;49153;45.568;11.894;2022-10-31T04:45:25;101966.19;;;12.62;82.61
57859;BME280;49153;45.568;11.894;2022-10-31T04:47:50;101954.31;;;12.54;82.42
57859;BME280;49153;45.568;11.894;2022-10-31T04:50:15;101961.16;;;12.58;82.08
57859;BME280;49153;45.568;11.894;2022-10-31T04:52:42;101958.59;;;12.56;82.37
57859;BME280;49153;45.568;11.894;2022-10-31T04:55:09;101968.81;;;12.62;82.14
57859;BME280;49153;45.568;11.894;2022-10-31T04:57:44;101968.34;;;12.56;82.66
57859;BME280;49153;45.568;11.894;2022-10-31T05:00:11;101964.56;;;12.60;82.40
57859;BME280;49153;45.568;11.894;2022-10-31T05:03:03;101966.47;;;12.58;82.37
57859;BME280;49153;45.568;11.894;2022-10-31T05:05:31;101966.81;;;12.52;81.97
57859;BME280;49153;45.568;11.894;2022-10-31T05:07:57;101952.88;;;12.34;81.80
57859;BME280;49153;45.568;11.894;2022-10-31T05:10:24;101946.78;;;12.18;82.07
57859;BME280;49153;45.568;11.894;2022-10-31T05:12:57;101949.88;;;12.10;82.55
57859;BME280;49153;45.568;11.894;2022-10-31T05:15:24;101970.66;;;12.16;82.68
57859;BME280;49153;45.568;11.894;2022-10-31T05:17:50;101974.28;;;12.15;82.87
57859;BME280;49153;45.568;11.894;2022-10-31T05:20:17;101970.28;;;12.08;83.12
57859;BME280;49153;45.568;11.894;2022-10-31T05:22:50;101976.13;;;12.13;82.64
57859;BME280;49153;45.568;11.894;2022-10-31T05:25:17;101978.00;;;12.11;83.03
57859;BME280;49153;45.568;11.894;2022-10-31T05:27:44;101959.75;;;12.07;82.97
57859;BME280;49153;45.568;11.894;2022-10-31T05:30:12;101976.13;;;12.13;82.93
57859;BME280;49153;45.568;11.894;2022-10-31T05:32:39;101986.88;;;12.26;83.07
57859;BME280;49153;45.568;11.894;2022-10-31T05:35:06;101973.69;;;12.10;82.45
57859;BME280;49153;45.568;11.894;2022-10-31T05:37:34;101988.09;;;12.20;82.90
57859;BME280;49153;45.568;11.894;2022-10-31T05:39:59;101978.28;;;12.07;82.69
57859;BME280;49153;45.568;11.894;2022-10-31T05:42:25;101965.78;;;11.95;82.57
57859;BME280;49153;45.568;11.894;2022-10-31T05:44:50;101995.00;;;12.07;82.86
57859;BME280;49153;45.568;11.894;2022-10-31T05:47:15;101987.56;;;12.14;83.23
57859;BME280;49153;45.568;11.894;2022-10-31T05:49:41;101972.13;;;12.06;83.13
57859;BME280;49153;45.568;11.894;2022-10-31T05:52:06;101964.75;;;11.97;82.66
57859;BME280;49153;45.568;11.894;2022-10-31T05:54:32;101970.22;;;11.94;82.80
57859;BME280;49153;45.568;11.894;2022-10-31T05:56:57;101978.75;;;11.99;82.87
57859;BME280;49153;45.568;11.894;2022-10-31T05:59:22;101965.28;;;11.88;83.04
57859;BME280;49153;45.568;11.894;2022-10-31T06:01:48;102001.34;;;12.05;83.21
57859;BME280;49153;45.568;11.894;2022-10-31T06:04:13;101976.44;;;11.93;83.26
57859;BME280;49153;45.568;11.894;2022-10-31T06:06:38;101992.56;;;12.04;83.34
57859;BME280;49153;45.568;11.894;2022-10-31T06:09:04;101985.53;;;12.03;83.46
57859;BME280;49153;45.568;11.894;2022-10-31T06:11:29;101994.47;;;12.16;83.77
57859;BME280;49153;45.568;11.894;2022-10-31T06:13:55;101986.91;;;12.10;83.66
57859;BME280;49153;45.568;11.894;2022-10-31T06:16:20;101994.75;;;12.12;83.77
57859;BME280;49153;45.568;11.894;2022-10-31T06:18:47;101983.06;;;12.00;83.34
57859;BME280;49153;45.568;11.894;2022-10-31T06:21:13;102014.03;;;12.14;83.96
57859;BME280;49153;45.568;11.894;2022-10-31T06:23:38;102000.72;;;12.15;84.12
57859;BME280;49153;45.568;11.894;2022-10-31T06:26:04;102002.25;;;12.19;84.02
57859;BME280;49153;45.568;11.894;2022-10-31T06:28:29;101962.00;;;11.99;84.17
57859;BME280;49153;45.568;11.894;2022-10-31T06:30:55;101998.81;;;12.17;84.24
57859;BME280;49153;45.568;11.894;2022-10-31T06:33:20;102007.69;;;12.16;84.49
57859;BME280;49153;45.568;11.894;2022-10-31T06:35:46;102009.13;;;12.22;84.81
57859;BME280;49153;45.568;11.894;2022-10-31T06:38:12;101998.25;;;12.12;84.91
57859;BME280;49153;45.568;11.894;2022-10-31T06:40:38;101992.69;;;12.17;85.28
57859;BME280;49153;45.568;11.894;2022-10-31T06:43:03;101990.28;;;12.28;85.35
57859;BME280;49153;45.568;11.894;2022-10-31T06:45:28;102013.88;;;12.47;85.54
57859;BME280;49153;45.568;11.894;2022-10-31T06:47:55;102012.56;;;12.54;85.46
57859;BME280;49153;45.568;11.894;2022-10-31T06:50:21;102009.75;;;12.57;85.68
57859;BME280;49153;45.568;11.894;2022-10-31T06:52:56;102011.25;;;12.61;85.68
57859;BME280;49153;45.568;11.894;2022-10-31T06:55:22;102022.84;;;12.74;86.08
57859;BME280;49153;45.568;11.894;2022-10-31T06:57:55;102008.84;;;12.72;86.21
57859;BME280;49153;45.568;11.894;2022-10-31T07:00:21;102024.56;;;12.89;86.44
57859;BME280;49153;45.568;11.894;2022-10-31T07:05:19;102016.63;;;12.89;86.89
57859;BME280;49153;45.568;11.894;2022-10-31T07:07:44;102029.59;;;13.08;87.26
57859;BME280;49153;45.568;11.894;2022-10-31T07:10:10;102034.66;;;13.13;87.17
57859;BME280;49153;45.568;11.894;2022-10-31T07:12:35;102038.63;;;13.20;87.30
57859;BME280;49153;45.568;11.894;2022-10-31T07:15:00;102039.84;;;13.28;87.17
57859;BME280;49153;45.568;11.894;2022-10-31T07:17:26;102048.28;;;13.35;87.08
57859;BME280;49153;45.568;11.894;2022-10-31T07:19:51;102046.03;;;13.43;87.58
57859;BME280;49153;45.568;11.894;2022-10-31T07:22:16;102041.09;;;13.51;87.70
57859;BME280;49153;45.568;11.894;2022-10-31T07:24:42;102031.25;;;13.53;87.66
57859;BME280;49153;45.568;11.894;2022-10-31T07:27:07;102024.59;;;13.60;87.71
57859;BME280;49153;45.568;11.894;2022-10-31T07:29:33;102037.28;;;13.69;87.76
57859;BME280;49153;45.568;11.894;2022-10-31T07:31:58;102043.50;;;13.82;87.71
57859;BME280;49153;45.568;11.894;2022-10-31T07:34:23;102057.03;;;13.92;88.03
57859;BME280;49153;45.568;11.894;2022-10-31T07:36:50;102049.75;;;13.95;87.89
57859;BME280;49153;45.568;11.894;2022-10-31T07:39:15;102033.28;;;13.90;88.17
57859;BME280;49153;45.568;11.894;2022-10-31T07:41:41;102062.56;;;14.16;88.39
57859;BME280;49153;45.568;11.894;2022-10-31T07:44:06;102036.22;;;14.13;88.38
57859;BME280;49153;45.568;11.894;2022-10-31T07:46:32;102052.44;;;14.35;88.98
57859;BME280;49153;45.568;11.894;2022-10-31T07:48:58;102048.47;;;14.42;88.97
57859;BME280;49153;45.568;11.894;2022-10-31T07:51:23;102060.19;;;14.52;88.71
57859;BME280;49153;45.568;11.894;2022-10-31T07:53:49;102057.66;;;14.63;88.67
57859;BME280;49153;45.568;11.894;2022-10-31T07:56:14;102049.69;;;14.63;88.77
57859;BME280;49153;45.568;11.894;2022-10-31T07:58:40;102063.66;;;14.79;88.58
57859;BME280;49153;45.568;11.894;2022-10-31T08:01:05;102055.91;;;14.89;89.50
57859;BME280;49153;45.568;11.894;2022-10-31T08:03:30;102046.25;;;15.01;89.63
57859;BME280;49153;45.568;11.894;2022-10-31T08:05:56;102059.63;;;15.25;89.62
57859;BME280;49153;45.568;11.894;2022-10-31T08:08:22;102061.34;;;15.38;89.42
57859;BME280;49153;45.568;11.894;2022-10-31T08:10:49;102047.81;;;15.41;89.58
57859;BME280;49153;45.568;11.894;2022-10-31T08:13:14;102059.53;;;15.64;89.57
57859;BME280;49153;45.568;11.894;2022-10-31T08:15:40;102040.78;;;15.66;89.03
57859;BME280;49153;45.568;11.894;2022-10-31T08:18:14;102066.59;;;15.89;88.82
57859;BME280;49153;45.568;11.894;2022-10-31T08:20:41;102056.06;;;15.87;87.76
57859;BME280;49153;45.568;11.894;2022-10-31T08:23:06;102070.38;;;16.10;88.79
57859;BME280;49153;45.568;11.894;2022-10-31T08:25:34;102036.63;;;16.11;88.52
57859;BME280;49153;45.568;11.894;2022-10-31T08:27:59;102054.28;;;16.35;88.04
57859;BME280;49153;45.568;11.894;2022-10-31T08:30:28;102046.09;;;16.38;87.36
57859;BME280;49153;45.568;11.894;2022-10-31T08:33:14;102041.38;;;16.42;86.87
57859;BME280;49153;45.568;11.894;2022-10-31T08:35:40;102041.84;;;16.60;87.46
57859;BME280;49153;45.568;11.894;2022-10-31T08:38:05;102039.81;;;16.74;87.47
57859;BME280;49153;45.568;11.894;2022-10-31T08:40:33;102033.88;;;16.82;87.08
57859;BME280;49153;45.568;11.894;2022-10-31T08:43:08;102019.38;;;16.86;86.59
57859;BME280;49153;45.568;11.894;2022-10-31T08:45:35;102029.56;;;17.03;86.58
57859;BME280;49153;45.568;11.894;2022-10-31T08:48:04;102033.22;;;17.13;85.76
57859;BME280;49153;45.568;11.894;2022-10-31T08:50:32;102054.09;;;17.30;84.94
57859;BME280;49153;45.568;11.894;2022-10-31T08:53:02;102052.88;;;17.35;84.54
57859;BME280;49153;45.568;11.894;2022-10-31T08:55:28;102049.50;;;17.44;84.47
57859;BME280;49153;45.568;11.894;2022-10-31T08:57:57;102054.84;;;17.55;84.75
57859;BME280;49153;45.568;11.894;2022-10-31T09:00:23;102056.78;;;17.64;83.57
57859;BME280;49153;45.568;11.894;2022-10-31T09:05:18;102057.97;;;17.93;84.45
57859;BME280;49153;45.568;11.894;2022-10-31T09:07:43;102061.34;;;18.06;82.85
57859;BME280;49153;45.568;11.894;2022-10-31T09:10:09;102055.00;;;18.19;82.65
57859;BME280;49153;45.568;11.894;2022-10-31T09:12:34;102059.13;;;18.23;81.74
57859;BME280;49153;45.568;11.894;2022-10-31T09:14:59;102050.72;;;18.27;80.67
57859;BME280;49153;45.568;11.894;2022-10-31T09:17:27;102057.38;;;18.33;80.09
57859;BME280;49153;45.568;11.894;2022-10-31T09:19:52;102053.25;;;18.40;80.75
57859;BME280;49153;45.568;11.894;2022-10-31T09:22:17;102049.03;;;18.58;80.95
57859;BME280;49153;45.568;11.894;2022-10-31T09:24:43;102052.63;;;18.68;80.35
57859;BME280;49153;45.568;11.894;2022-10-31T09:27:08;102053.72;;;18.77;79.24
57859;BME280;49153;45.568;11.894;2022-10-31T09:29:34;102034.78;;;18.69;78.19
57859;BME280;49153;45.568;11.894;2022-10-31T09:31:59;102042.88;;;18.78;78.09
57859;BME280;49153;45.568;11.894;2022-10-31T09:34:25;102038.81;;;18.84;78.59
57859;BME280;49153;45.568;11.894;2022-10-31T09:36:50;102053.88;;;19.06;78.63
57859;BME280;49153;45.568;11.894;2022-10-31T09:39:15;102045.13;;;19.04;76.65
57859;BME280;49153;45.568;11.894;2022-10-31T09:50:44;102050.63;;;19.53;76.25
57859;BME280;49153;45.568;11.894;2022-10-31T09:56:21;102059.63;;;19.83;75.51
57859;BME280;49153;45.568;11.894;2022-10-31T09:59:24;102047.78;;;19.95;75.69
57859;BME280;49153;45.568;11.894;2022-10-31T10:01:59;102058.56;;;20.14;75.95
57859;BME280;49153;45.568;11.894;2022-10-31T10:09:36;102064.53;;;20.46;73.50
57859;BME280;49153;45.568;11.894;2022-10-31T10:12:16;102058.63;;;20.62;73.63
57859;BME280;49153;45.568;11.894;2022-10-31T10:17:45;102046.19;;;20.71;72.48
57859;BME280;49153;45.568;11.894;2022-10-31T10:20:28;102051.94;;;20.85;72.36
57859;BME280;49153;45.568;11.894;2022-10-31T10:25:33;102043.03;;;20.94;69.01
57859;BME280;49153;45.568;11.894;2022-10-31T10:30:42;102045.31;;;20.99;66.97
57859;BME280;49153;45.568;11.894;2022-10-31T10:33:20;102045.88;;;20.93;67.83
57859;BME280;49153;45.568;11.894;2022-10-31T10:35:55;102040.06;;;21.07;68.91
57859;BME280;49153;45.568;11.894;2022-10-31T10:38:37;102041.03;;;21.25;69.09
57859;BME280;49153;45.568;11.894;2022-10-31T10:41:17;102026.00;;;21.32;66.10
57859;BME280;49153;45.568;11.894;2022-10-31T10:43:42;102010.38;;;21.18;66.47
57859;BME280;49153;45.568;11.894;2022-10-31T10:51:59;102032.00;;;21.81;65.58
57859;BME280;49153;45.568;11.894;2022-10-31T10:59:24;102021.53;;;22.05;65.49
57859;BME280;49153;45.568;11.894;2022-10-31T11:01:51;102025.41;;;22.20;64.35
57859;BME280;49153;45.568;11.894;2022-10-31T11:04:30;102013.72;;;22.29;64.49
57859;BME280;49153;45.568;11.894;2022-10-31T11:07:08;102015.19;;;22.42;63.45
57859;BME280;49153;45.568;11.894;2022-10-31T11:09:35;102013.41;;;22.50;63.52
57859;BME280;49153;45.568;11.894;2022-10-31T11:12:09;102009.25;;;22.56;61.66
57859;BME280;49153;45.568;11.894;2022-10-31T11:14:44;101999.16;;;22.58;61.57
57859;BME280;49153;45.568;11.894;2022-10-31T11:17:22;101990.28;;;22.57;60.92
57859;BME280;49153;45.568;11.894;2022-10-31T11:20:33;102009.44;;;22.80;62.36
57859;BME280;49153;45.568;11.894;2022-10-31T11:23:18;101994.78;;;23.00;61.67
57859;BME280;49153;45.568;11.894;2022-10-31T11:26:02;101986.44;;;23.11;60.67
57859;BME280;49153;45.568;11.894;2022-10-31T11:28:31;101983.78;;;23.20;60.10
57859;BME280;49153;45.568;11.894;2022-10-31T11:31:06;101987.56;;;23.35;59.85
57859;BME280;49153;45.568;11.894;2022-10-31T11:33:34;101972.47;;;23.42;60.53
57859;BME280;49153;45.568;11.894;2022-10-31T11:36:14;101972.22;;;23.61;60.55
57859;BME280;49153;45.568;11.894;2022-10-31T11:38:42;101974.56;;;23.64;59.75
57859;BME280;49153;45.568;11.894;2022-10-31T11:41:17;101974.59;;;23.72;59.05
57859;BME280;49153;45.568;11.894;2022-10-31T11:44:14;101970.56;;;23.76;58.35
57859;BME280;49153;45.568;11.894;2022-10-31T11:46:48;101962.81;;;23.81;58.96
57859;BME280;49153;45.568;11.894;2022-10-31T11:51:57;101963.19;;;24.03;57.89
57859;BME280;49153;45.568;11.894;2022-10-31T11:56:51;101945.00;;;24.13;56.65
57859;BME280;49153;45.568;11.894;2022-10-31T11:59:40;101952.78;;;24.24;57.62
57859;BME280;49153;45.568;11.894;2022-10-31T12:02:19;101951.97;;;24.31;57.62
57859;BME280;49153;45.568;11.894;2022-10-31T12:04:51;101953.13;;;24.37;58.33
57859;BME280;49153;45.568;11.894;2022-10-31T12:07:17;101950.41;;;24.45;59.20
57859;BME280;49153;45.568;11.894;2022-10-31T12:09:43;101956.00;;;24.52;59.20
57859;BME280;49153;45.568;11.894;2022-10-31T12:17:46;101940.31;;;24.47;56.72
57859;BME280;49153;45.568;11.894;2022-10-31T12:23:24;101937.75;;;24.54;57.17
57859;BME280;49153;45.568;11.894;2022-10-31T12:25:54;101940.28;;;24.55;55.75
57859;BME280;49153;45.568;11.894;2022-10-31T12:31:11;101936.41;;;24.50;56.53
57859;BME280;49153;45.568;11.894;2022-10-31T12:36:29;101934.91;;;24.63;56.35
57859;BME280;49153;45.568;11.894;2022-10-31T12:50:22;101920.03;;;24.59;55.34
57859;BME280;49153;45.568;11.894;2022-10-31T12:55:55;101925.78;;;24.56;53.15
57859;BME280;49153;45.568;11.894;2022-10-31T13:01:35;101917.66;;;24.64;55.09
57859;BME280;49153;45.568;11.894;2022-10-31T13:04:12;101905.84;;;24.73;56.66
57859;BME280;49153;45.568;11.894;2022-10-31T13:06:54;101912.25;;;24.64;53.12
57859;BME280;49153;45.568;11.894;2022-10-31T13:09:30;101905.22;;;24.63;52.54
57859;BME280;49153;45.568;11.894;2022-10-31T13:12:03;101902.19;;;24.58;53.72
57859;BME280;49153;45.568;11.894;2022-10-31T13:14:39;101912.47;;;24.63;55.25
57859;BME280;49153;45.568;11.894;2022-10-31T13:17:13;101903.47;;;24.70;54.82
57859;BME280;49153;45.568;11.894;2022-10-31T13:19:45;101902.31;;;24.73;55.09
57859;BME280;49153;45.568;11.894;2022-10-31T13:24:54;101892.31;;;24.81;53.58
57859;BME280;49153;45.568;11.894;2022-10-31T13:28:05;101896.38;;;24.77;53.05
57859;BME280;49153;45.568;11.894;2022-10-31T13:30:38;101883.91;;;24.76;53.38
57859;BME280;49153;45.568;11.894;2022-10-31T13:33:19;101899.91;;;24.86;53.85
57859;BME280;49153;45.568;11.894;2022-10-31T13:38:59;101887.59;;;24.92;54.26
57859;BME280;49153;45.568;11.894;2022-10-31T13:44:20;101885.50;;;25.10;56.64
57859;BME280;49153;45.568;11.894;2022-10-31T13:46:46;101888.81;;;25.20;56.51
57859;BME280;49153;45.568;11.894;2022-10-31T13:54:54;101875.25;;;25.28;53.74
57859;BME280;49153;45.568;11.894;2022-10-31T13:59:59;101877.50;;;25.24;51.95
57859;BME280;49153;45.568;11.894;2022-10-31T14:02:29;101877.31;;;25.26;51.32
57859;BME280;49153;45.568;11.894;2022-10-31T14:07:47;101871.81;;;25.42;53.54
57859;BME280;49153;45.568;11.894;2022-10-31T14:10:35;101868.41;;;25.48;53.79
57859;BME280;49153;45.568;11.894;2022-10-31T14:13:05;101873.81;;;25.48;53.95
57859;BME280;49153;45.568;11.894;2022-10-31T14:15:33;101868.03;;;25.51;53.94
57859;BME280;49153;45.568;11.894;2022-10-31T14:18:03;101866.34;;;25.58;52.76
57859;BME280;49153;45.568;11.894;2022-10-31T14:20:40;101869.22;;;25.57;51.49
57859;BME280;49153;45.568;11.894;2022-10-31T14:25:38;101867.06;;;25.44;51.10
57859;BME280;49153;45.568;11.894;2022-10-31T14:28:22;101863.41;;;25.37;52.65
57859;BME280;49153;45.568;11.894;2022-10-31T14:30:57;101867.47;;;25.33;52.55
57859;BME280;49153;45.568;11.894;2022-10-31T14:33:25;101868.50;;;25.32;52.16
57859;BME280;49153;45.568;11.894;2022-10-31T14:36:04;101867.47;;;25.33;53.56
57859;BME280;49153;45.568;11.894;2022-10-31T14:44:53;101863.66;;;25.19;54.89
57859;BME280;49153;45.568;11.894;2022-10-31T14:47:16;101856.44;;;25.12;55.90
57859;BME280;49153;45.568;11.894;2022-10-31T14:50:12;101857.66;;;25.01;56.42
57859;BME280;49153;45.568;11.894;2022-10-31T14:52:47;101856.88;;;24.93;56.01
57859;BME280;49153;45.568;11.894;2022-10-31T14:55:14;101852.84;;;24.80;57.04
57859;BME280;49153;45.568;11.894;2022-10-31T14:57:48;101859.97;;;24.73;57.30
57859;BME280;49153;45.568;11.894;2022-10-31T15:00:18;101862.34;;;24.68;57.90
57859;BME280;49153;45.568;11.894;2022-10-31T15:03:14;101859.81;;;24.67;58.12
57859;BME280;49153;45.568;11.894;2022-10-31T15:06:04;101861.19;;;24.63;58.15
57859;BME280;49153;45.568;11.894;2022-10-31T15:11:16;101853.78;;;24.57;58.17
57859;BME280;49153;45.568;11.894;2022-10-31T15:13:47;101855.47;;;24.50;57.67
57859;BME280;49153;45.568;11.894;2022-10-31T15:16:24;101863.44;;;24.35;57.24